createdAt,value
2017-11-29T00:00:34.833Z,0.00
2017-11-29T00:01:34.818Z,0.00
2017-11-29T00:02:34.804Z,0.00
2017-11-29T00:03:34.790Z,0.00
2017-11-29T00:04:34.795Z,0.00
2017-11-29T00:05:34.762Z,0.00
2017-11-29T00:06:34.748Z,0.00
2017-11-29T00:07:34.733Z,0.00
2017-11-29T00:08:34.719Z,0.00
2017-11-29T00:09:34.706Z,0.00
2017-11-29T00:10:34.692Z,0.00
2017-11-29T00:11:34.677Z,0.00
2017-11-29T00:12:34.663Z,0.00
2017-11-29T00:13:34.648Z,0.00
2017-11-29T00:14:34.635Z,0.00
2017-11-29T00:15:34.619Z,0.00
2017-11-29T00:16:34.606Z,0.00
2017-11-29T00:17:34.592Z,0.00
2017-11-29T00:18:34.576Z,0.00
2017-11-29T00:19:34.563Z,0.00
2017-11-29T00:20:34.550Z,0.00
2017-11-29T00:21:34.534Z,0.00
2017-11-29T00:22:34.519Z,0.00
2017-11-29T00:23:34.505Z,0.00
2017-11-29T00:24:34.493Z,0.00
2017-11-29T00:25:34.478Z,0.00
2017-11-29T00:26:34.463Z,0.00
2017-11-29T00:27:34.450Z,0.00
2017-11-29T00:28:34.436Z,0.00
2017-11-29T00:29:34.421Z,0.00
2017-11-29T00:30:34.406Z,0.00
2017-11-29T00:31:34.391Z,0.00
2017-11-29T00:32:34.379Z,0.00
2017-11-29T00:33:34.364Z,0.00
2017-11-29T00:34:34.348Z,0.00
2017-11-29T00:35:34.333Z,0.00
2017-11-29T00:36:34.320Z,0.00
2017-11-29T00:37:34.333Z,0.00
2017-11-29T00:38:34.290Z,0.00
2017-11-29T00:39:34.277Z,0.00
2017-11-29T00:40:34.263Z,0.00
2017-11-29T00:41:34.248Z,0.00
2017-11-29T00:42:34.234Z,0.00
2017-11-29T00:43:34.219Z,0.00
2017-11-29T00:44:34.206Z,0.00
2017-11-29T00:45:34.191Z,0.00
2017-11-29T00:46:34.176Z,0.00
2017-11-29T00:47:34.165Z,0.00
2017-11-29T00:48:34.148Z,0.00
2017-11-29T00:49:34.135Z,0.00
2017-11-29T00:50:34.121Z,0.00
2017-11-29T00:51:34.105Z,0.00
2017-11-29T00:52:34.093Z,0.00
2017-11-29T00:53:34.077Z,0.00
2017-11-29T00:54:34.061Z,0.00
2017-11-29T00:55:34.047Z,0.00
2017-11-29T00:56:34.032Z,0.00
2017-11-29T00:57:34.019Z,0.00
2017-11-29T00:58:34.004Z,0.00
2017-11-29T00:59:33.990Z,0.00
2017-11-29T01:00:33.976Z,0.00
2017-11-29T01:01:33.961Z,0.00
2017-11-29T01:02:33.946Z,0.00
2017-11-29T01:03:33.932Z,0.00
2017-11-29T01:04:33.916Z,0.00
2017-11-29T01:05:33.902Z,0.00
2017-11-29T01:06:33.892Z,0.00
2017-11-29T01:07:33.873Z,0.00
2017-11-29T01:08:33.860Z,0.00
2017-11-29T01:09:33.845Z,0.00
2017-11-29T01:10:33.829Z,0.00
2017-11-29T01:11:33.816Z,0.00
2017-11-29T01:12:33.802Z,0.00
2017-11-29T01:13:33.789Z,0.00
2017-11-29T01:14:33.772Z,0.00
2017-11-29T01:15:33.758Z,0.00
2017-11-29T01:16:33.742Z,0.00
2017-11-29T01:17:33.728Z,0.00
2017-11-29T01:18:33.714Z,0.00
2017-11-29T01:19:33.699Z,0.00
2017-11-29T01:20:33.685Z,0.00
2017-11-29T01:21:33.700Z,0.00
2017-11-29T01:22:33.654Z,0.00
2017-11-29T01:23:33.650Z,0.00
2017-11-29T01:24:33.628Z,0.00
2017-11-29T01:25:33.618Z,0.00
2017-11-29T01:26:33.597Z,0.00
2017-11-29T01:27:33.582Z,0.00
2017-11-29T01:28:33.568Z,0.00
2017-11-29T01:29:33.554Z,0.00
2017-11-29T01:30:33.538Z,0.00
2017-11-29T01:31:33.523Z,0.00
2017-11-29T01:32:33.511Z,0.00
2017-11-29T01:33:33.496Z,0.00
2017-11-29T01:34:33.479Z,0.00
2017-11-29T01:35:33.465Z,0.00
2017-11-29T01:36:33.450Z,0.00
2017-11-29T01:37:33.437Z,0.00
2017-11-29T01:38:33.421Z,0.00
2017-11-29T01:39:33.408Z,0.00
2017-11-29T01:40:33.394Z,0.00
2017-11-29T01:41:33.380Z,0.00
2017-11-29T01:42:33.362Z,0.00
2017-11-29T01:43:33.348Z,0.00
2017-11-29T01:44:33.335Z,0.00
2017-11-29T01:45:33.321Z,0.00
2017-11-29T01:46:33.307Z,0.00
2017-11-29T01:47:33.290Z,0.00
2017-11-29T01:48:33.275Z,0.00
2017-11-29T01:49:33.262Z,0.00
2017-11-29T01:50:33.247Z,0.00
2017-11-29T01:51:33.234Z,0.00
2017-11-29T01:52:33.218Z,0.00
2017-11-29T01:53:33.203Z,0.00
2017-11-29T01:54:33.187Z,0.00
2017-11-29T01:55:33.174Z,0.00
2017-11-29T01:56:33.160Z,0.00
2017-11-29T01:57:33.159Z,0.00
2017-11-29T01:58:33.129Z,0.00
2017-11-29T01:59:33.115Z,0.00
2017-11-29T02:00:33.101Z,0.00
2017-11-29T02:01:33.091Z,0.00
2017-11-29T02:02:33.070Z,0.00
2017-11-29T02:03:33.057Z,0.00
2017-11-29T02:04:33.040Z,0.00
2017-11-29T02:05:33.027Z,0.00
2017-11-29T02:06:33.012Z,0.00
2017-11-29T02:07:32.997Z,0.00
2017-11-29T02:08:32.982Z,0.00
2017-11-29T02:09:32.967Z,0.00
2017-11-29T02:10:32.954Z,0.00
2017-11-29T02:11:32.940Z,0.00
2017-11-29T02:12:32.930Z,0.00
2017-11-29T02:13:32.914Z,0.00
2017-11-29T02:14:32.894Z,0.00
2017-11-29T02:15:32.879Z,0.00
2017-11-29T02:16:32.865Z,0.00
2017-11-29T02:17:32.850Z,0.00
2017-11-29T02:18:32.835Z,0.00
2017-11-29T02:19:32.820Z,0.00
2017-11-29T02:20:32.805Z,0.00
2017-11-29T02:21:32.789Z,0.00
2017-11-29T02:22:32.776Z,0.00
2017-11-29T02:23:32.762Z,0.00
2017-11-29T02:24:32.746Z,0.00
2017-11-29T02:25:32.731Z,0.00
2017-11-29T02:26:32.717Z,0.00
2017-11-29T02:27:32.702Z,0.00
2017-11-29T02:28:32.687Z,0.00
2017-11-29T02:29:32.672Z,0.00
2017-11-29T02:30:32.658Z,0.00
2017-11-29T02:31:32.642Z,0.00
2017-11-29T02:32:32.633Z,0.00
2017-11-29T02:33:32.613Z,0.00
2017-11-29T02:34:32.600Z,0.00
2017-11-29T02:35:32.585Z,0.00
2017-11-29T02:36:32.570Z,0.00
2017-11-29T02:37:32.555Z,0.00
2017-11-29T02:38:32.539Z,0.00
2017-11-29T02:39:32.523Z,0.00
2017-11-29T02:40:32.510Z,0.00
2017-11-29T02:41:32.497Z,0.00
2017-11-29T02:42:32.479Z,0.00
2017-11-29T02:43:32.465Z,0.00
2017-11-29T02:44:32.452Z,0.00
2017-11-29T02:45:32.434Z,0.00
2017-11-29T02:46:32.429Z,0.00
2017-11-29T02:47:32.411Z,0.00
2017-11-29T02:48:32.391Z,0.00
2017-11-29T02:49:32.375Z,0.00
2017-11-29T02:50:32.360Z,0.00
2017-11-29T02:51:32.351Z,0.00
2017-11-29T02:52:32.330Z,0.00
2017-11-29T02:53:32.318Z,0.00
2017-11-29T02:54:32.302Z,0.00
2017-11-29T02:55:32.286Z,0.00
2017-11-29T02:56:32.271Z,0.00
2017-11-29T02:57:32.256Z,0.00
2017-11-29T02:58:32.240Z,0.00
2017-11-29T02:59:32.226Z,0.00
2017-11-29T03:00:32.211Z,0.00
2017-11-29T03:01:32.196Z,0.00
2017-11-29T03:02:32.181Z,0.00
2017-11-29T03:03:32.167Z,0.00
2017-11-29T03:04:32.150Z,0.00
2017-11-29T03:05:32.136Z,0.00
2017-11-29T03:06:32.122Z,0.00
2017-11-29T03:07:32.107Z,0.00
2017-11-29T03:08:32.092Z,0.00
2017-11-29T03:09:32.077Z,0.00
2017-11-29T03:10:32.061Z,0.00
2017-11-29T03:11:32.047Z,0.00
2017-11-29T03:12:32.032Z,0.00
2017-11-29T03:13:32.019Z,0.00
2017-11-29T03:14:32.003Z,0.00
2017-11-29T03:15:31.988Z,0.00
2017-11-29T03:16:31.972Z,0.00
2017-11-29T03:17:31.958Z,0.00
2017-11-29T03:18:31.941Z,0.00
2017-11-29T03:19:31.929Z,0.00
2017-11-29T03:20:31.913Z,0.00
2017-11-29T03:21:31.897Z,0.00
2017-11-29T03:22:31.882Z,0.00
2017-11-29T03:23:31.867Z,0.00
2017-11-29T03:24:31.855Z,0.00
2017-11-29T03:25:31.838Z,0.00
2017-11-29T03:26:31.821Z,0.00
2017-11-29T03:27:31.821Z,0.00
2017-11-29T03:28:31.791Z,0.00
2017-11-29T03:29:31.777Z,0.00
2017-11-29T03:30:31.762Z,0.00
2017-11-29T03:31:31.746Z,0.00
2017-11-29T03:32:31.733Z,0.00
2017-11-29T03:33:31.718Z,0.00
2017-11-29T03:34:31.701Z,0.00
2017-11-29T03:35:31.690Z,0.00
2017-11-29T03:36:31.672Z,0.00
2017-11-29T03:37:31.658Z,0.00
2017-11-29T03:38:31.641Z,0.00
2017-11-29T03:39:31.626Z,0.00
2017-11-29T03:40:31.611Z,0.00
2017-11-29T03:41:31.598Z,0.00
2017-11-29T03:42:31.581Z,0.00
2017-11-29T03:43:31.566Z,0.00
2017-11-29T03:44:31.552Z,0.00
2017-11-29T03:45:31.536Z,0.00
2017-11-29T03:46:31.523Z,0.00
2017-11-29T03:47:31.507Z,0.00
2017-11-29T03:48:31.492Z,0.00
2017-11-29T03:49:31.476Z,0.00
2017-11-29T03:50:31.463Z,0.00
2017-11-29T03:51:31.452Z,0.00
2017-11-29T03:52:31.433Z,0.00
2017-11-29T03:53:31.418Z,0.00
2017-11-29T03:54:31.401Z,0.00
2017-11-29T03:55:31.386Z,0.00
2017-11-29T03:56:31.372Z,0.00
2017-11-29T03:57:31.369Z,0.00
2017-11-29T03:58:31.341Z,0.00
2017-11-29T03:59:31.328Z,0.00
2017-11-29T04:00:31.311Z,0.00
2017-11-29T04:01:31.299Z,0.00
2017-11-29T04:02:31.283Z,0.00
2017-11-29T04:03:31.267Z,0.00
2017-11-29T04:04:31.253Z,0.00
2017-11-29T04:05:31.239Z,0.00
2017-11-29T04:06:31.222Z,0.00
2017-11-29T04:07:31.208Z,0.00
2017-11-29T04:08:31.193Z,0.00
2017-11-29T04:09:31.179Z,0.00
2017-11-29T04:10:31.163Z,0.00
2017-11-29T04:11:31.149Z,0.00
2017-11-29T04:12:31.134Z,0.00
2017-11-29T04:13:31.121Z,0.00
2017-11-29T04:14:31.104Z,0.00
2017-11-29T04:15:31.089Z,0.00
2017-11-29T04:16:31.076Z,0.00
2017-11-29T04:17:31.060Z,0.00
2017-11-29T04:18:31.047Z,0.00
2017-11-29T04:19:31.032Z,0.00
2017-11-29T04:20:31.017Z,0.00
2017-11-29T04:21:31.003Z,0.00
2017-11-29T04:22:30.988Z,0.00
2017-11-29T04:23:30.971Z,0.00
2017-11-29T04:24:30.959Z,0.00
2017-11-29T04:25:30.947Z,0.00
2017-11-29T04:26:30.928Z,0.00
2017-11-29T04:27:30.914Z,0.00
2017-11-29T04:28:30.900Z,0.00
2017-11-29T04:29:30.886Z,0.00
2017-11-29T04:30:30.871Z,0.00
2017-11-29T04:31:30.857Z,0.00
2017-11-29T04:32:30.841Z,0.00
2017-11-29T04:33:30.826Z,0.00
2017-11-29T04:34:30.811Z,0.00
2017-11-29T04:35:30.805Z,0.00
2017-11-29T04:36:30.783Z,0.00
2017-11-29T04:37:30.767Z,0.00
2017-11-29T04:38:30.759Z,0.00
2017-11-29T04:39:30.738Z,0.00
2017-11-29T04:40:30.725Z,0.00
2017-11-29T04:41:30.709Z,0.00
2017-11-29T04:42:30.694Z,0.00
2017-11-29T04:43:30.680Z,0.00
2017-11-29T04:44:30.677Z,0.00
2017-11-29T04:45:30.652Z,0.00
2017-11-29T04:46:30.638Z,0.00
2017-11-29T04:47:30.624Z,0.00
2017-11-29T04:48:30.610Z,0.00
2017-11-29T04:49:30.594Z,0.00
2017-11-29T04:50:30.579Z,0.00
2017-11-29T04:51:30.564Z,0.00
2017-11-29T04:52:30.550Z,0.00
2017-11-29T04:53:30.536Z,0.00
2017-11-29T04:54:30.522Z,0.00
2017-11-29T04:55:30.507Z,0.00
2017-11-29T04:56:30.490Z,0.00
2017-11-29T04:57:30.478Z,0.00
2017-11-29T04:58:30.462Z,0.00
2017-11-29T04:59:30.447Z,0.00
2017-11-29T05:00:30.434Z,0.00
2017-11-29T05:01:30.419Z,0.00
2017-11-29T05:02:30.403Z,0.00
2017-11-29T05:03:30.389Z,0.00
2017-11-29T05:04:30.375Z,0.00
2017-11-29T05:05:30.365Z,0.00
2017-11-29T05:06:30.345Z,0.00
2017-11-29T05:07:30.331Z,0.00
2017-11-29T05:08:30.316Z,0.00
2017-11-29T05:09:30.303Z,0.00
2017-11-29T05:10:30.289Z,0.00
2017-11-29T05:11:30.274Z,0.00
2017-11-29T05:12:30.257Z,0.00
2017-11-29T05:13:30.245Z,0.00
2017-11-29T05:14:30.229Z,0.00
2017-11-29T05:15:30.216Z,0.00
2017-11-29T05:16:30.199Z,0.00
2017-11-29T05:17:30.186Z,0.00
2017-11-29T05:18:30.172Z,0.00
2017-11-29T05:19:30.156Z,0.00
2017-11-29T05:20:30.141Z,0.00
2017-11-29T05:21:30.127Z,0.00
2017-11-29T05:22:30.111Z,0.00
2017-11-29T05:23:30.096Z,0.00
2017-11-29T05:24:30.082Z,0.00
2017-11-29T05:25:30.068Z,0.00
2017-11-29T05:26:30.054Z,0.00
2017-11-29T05:27:30.039Z,0.00
2017-11-29T05:28:30.027Z,0.00
2017-11-29T05:29:30.011Z,0.00
2017-11-29T05:30:29.997Z,0.00
2017-11-29T05:31:29.981Z,0.00
2017-11-29T05:32:29.968Z,0.00
2017-11-29T05:33:29.952Z,0.00
2017-11-29T05:34:29.936Z,0.00
2017-11-29T05:35:29.921Z,0.00
2017-11-29T05:36:29.908Z,0.00
2017-11-29T05:37:29.894Z,0.00
2017-11-29T05:38:29.879Z,0.00
2017-11-29T05:39:29.864Z,0.00
2017-11-29T05:40:29.853Z,0.00
2017-11-29T05:41:29.834Z,0.00
2017-11-29T05:42:29.824Z,0.00
2017-11-29T05:43:29.804Z,0.00
2017-11-29T05:44:29.792Z,0.00
2017-11-29T05:45:29.776Z,0.00
2017-11-29T05:46:29.761Z,0.00
2017-11-29T05:47:29.752Z,0.00
2017-11-29T05:48:29.732Z,0.00
2017-11-29T05:49:29.718Z,0.00
2017-11-29T05:50:29.702Z,0.00
2017-11-29T05:51:29.689Z,0.00
2017-11-29T05:52:29.673Z,0.00
2017-11-29T05:53:29.660Z,0.00
2017-11-29T05:54:29.644Z,0.00
2017-11-29T05:55:29.630Z,0.00
2017-11-29T05:56:29.615Z,0.00
2017-11-29T05:57:29.601Z,0.00
2017-11-29T05:58:29.587Z,0.00
2017-11-29T05:59:29.571Z,0.00
2017-11-29T06:00:29.557Z,0.00
2017-11-29T06:01:29.544Z,0.00
2017-11-29T06:02:29.529Z,0.00
2017-11-29T06:03:29.514Z,0.00
2017-11-29T06:04:29.501Z,0.00
2017-11-29T06:05:29.485Z,0.00
2017-11-29T06:06:29.470Z,0.00
2017-11-29T06:07:29.456Z,0.00
2017-11-29T06:08:29.441Z,0.00
2017-11-29T06:09:29.428Z,0.00
2017-11-29T06:10:29.412Z,0.00
2017-11-29T06:11:29.398Z,0.00
2017-11-29T06:12:29.384Z,0.00
2017-11-29T06:13:29.370Z,0.00
2017-11-29T06:14:29.363Z,0.00
2017-11-29T06:15:29.341Z,0.00
2017-11-29T06:16:29.327Z,0.00
2017-11-29T06:17:29.316Z,0.00
2017-11-29T06:18:29.299Z,0.00
2017-11-29T06:19:29.283Z,0.00
2017-11-29T06:20:29.270Z,0.00
2017-11-29T06:21:29.253Z,0.00
2017-11-29T06:22:29.239Z,0.00
2017-11-29T06:23:29.224Z,0.00
2017-11-29T06:24:29.209Z,0.00
2017-11-29T06:25:29.196Z,0.00
2017-11-29T06:26:29.180Z,0.00
2017-11-29T06:27:29.179Z,0.00
2017-11-29T06:28:29.153Z,0.00
2017-11-29T06:29:29.137Z,0.00
2017-11-29T06:31:29.110Z,0.00
2017-11-29T06:32:29.095Z,0.00
2017-11-29T06:33:29.080Z,0.00
2017-11-29T06:34:29.067Z,0.00
2017-11-29T06:35:29.056Z,0.00
2017-11-29T06:36:29.036Z,0.00
2017-11-29T06:37:29.022Z,0.00
2017-11-29T06:38:29.009Z,0.00
2017-11-29T06:39:28.995Z,0.00
2017-11-29T06:40:28.979Z,0.00
2017-11-29T06:41:28.966Z,0.00
2017-11-29T06:42:28.953Z,0.00
2017-11-29T06:43:28.936Z,0.00
2017-11-29T06:44:28.922Z,0.00
2017-11-29T06:45:28.908Z,0.00
2017-11-29T06:46:28.892Z,4.00
2017-11-29T06:47:28.878Z,4.00
2017-11-29T06:48:28.867Z,0.00
2017-11-29T06:49:28.850Z,0.00
2017-11-29T06:50:28.835Z,4.00
2017-11-29T06:51:28.821Z,0.00
2017-11-29T06:52:28.806Z,4.00
2017-11-29T06:53:28.791Z,4.00
2017-11-29T06:54:28.783Z,4.00
2017-11-29T06:55:28.764Z,4.00
2017-11-29T06:56:28.794Z,8.00
2017-11-29T06:57:28.734Z,8.00
2017-11-29T06:58:28.719Z,8.00
2017-11-29T06:59:28.705Z,8.00
2017-11-29T07:00:28.690Z,12.00
2017-11-29T07:01:28.677Z,12.00
2017-11-29T07:02:28.665Z,16.00
2017-11-29T07:03:28.646Z,16.00
2017-11-29T07:04:28.633Z,20.00
2017-11-29T07:05:28.618Z,24.00
2017-11-29T07:06:28.609Z,24.00
2017-11-29T07:07:28.633Z,28.00
2017-11-29T07:08:28.576Z,32.00
2017-11-29T07:09:28.569Z,36.00
2017-11-29T07:10:28.546Z,36.00
2017-11-29T07:11:28.539Z,44.00
2017-11-29T07:12:28.516Z,48.00
2017-11-29T07:13:28.503Z,52.00
2017-11-29T07:14:28.487Z,60.00
2017-11-29T07:15:28.475Z,64.00
2017-11-29T07:16:28.460Z,68.00
2017-11-29T07:17:28.445Z,76.00
2017-11-29T07:18:28.430Z,80.00
2017-11-29T07:19:28.417Z,84.00
2017-11-29T07:20:28.402Z,92.00
2017-11-29T07:21:28.387Z,96.00
2017-11-29T07:22:28.373Z,92.00
2017-11-29T07:23:28.359Z,96.00
2017-11-29T07:24:28.345Z,100.00
2017-11-29T07:25:28.331Z,100.00
2017-11-29T07:26:28.313Z,92.00
2017-11-29T07:27:28.332Z,96.00
2017-11-29T07:28:28.287Z,104.00
2017-11-29T07:29:28.274Z,104.00
2017-11-29T07:30:28.257Z,116.00
2017-11-29T07:31:28.243Z,128.00
2017-11-29T07:32:28.228Z,132.00
2017-11-29T07:33:28.213Z,132.00
2017-11-29T07:34:28.200Z,140.00
2017-11-29T07:35:28.185Z,156.00
2017-11-29T07:36:28.170Z,156.00
2017-11-29T07:37:28.156Z,168.00
2017-11-29T07:38:28.140Z,184.00
2017-11-29T07:39:28.128Z,164.00
2017-11-29T07:40:28.112Z,172.00
2017-11-29T07:41:28.098Z,200.00
2017-11-29T07:42:28.083Z,200.00
2017-11-29T07:43:28.068Z,204.00
2017-11-29T07:44:28.056Z,204.00
2017-11-29T07:45:28.041Z,216.00
2017-11-29T07:46:28.026Z,244.00
2017-11-29T07:47:28.012Z,244.00
2017-11-29T07:48:27.995Z,232.00
2017-11-29T07:49:27.984Z,260.00
2017-11-29T07:50:27.968Z,284.00
2017-11-29T07:51:27.953Z,320.00
2017-11-29T07:52:27.939Z,344.00
2017-11-29T07:53:27.926Z,308.00
2017-11-29T07:54:27.910Z,288.00
2017-11-29T07:55:27.894Z,324.00
2017-11-29T07:56:27.880Z,352.00
2017-11-29T07:57:27.873Z,344.00
2017-11-29T07:58:27.851Z,300.00
2017-11-29T07:59:27.845Z,308.00
2017-11-29T08:00:27.822Z,308.00
2017-11-29T08:01:27.815Z,284.00
2017-11-29T08:02:27.795Z,360.00
2017-11-29T08:03:27.778Z,420.00
2017-11-29T08:04:27.765Z,368.00
2017-11-29T08:05:27.750Z,352.00
2017-11-29T08:06:27.734Z,352.00
2017-11-29T08:07:27.720Z,348.00
2017-11-29T08:08:27.709Z,360.00
2017-11-29T08:09:27.693Z,328.00
2017-11-29T08:10:27.685Z,332.00
2017-11-29T08:11:27.663Z,344.00
2017-11-29T08:12:27.650Z,376.00
2017-11-29T08:13:27.635Z,408.00
2017-11-29T08:14:27.625Z,396.00
2017-11-29T08:15:27.606Z,356.00
2017-11-29T08:16:27.590Z,352.00
2017-11-29T08:17:27.578Z,372.00
2017-11-29T08:18:27.585Z,412.00
2017-11-29T08:19:27.549Z,496.00
2017-11-29T08:20:27.533Z,404.00
2017-11-29T08:21:27.520Z,344.00
2017-11-29T08:22:27.503Z,380.00
2017-11-29T08:23:27.494Z,460.00
2017-11-29T08:24:27.476Z,468.00
2017-11-29T08:25:27.460Z,356.00
2017-11-29T08:26:27.446Z,320.00
2017-11-29T08:27:27.440Z,332.00
2017-11-29T08:28:27.417Z,380.00
2017-11-29T08:29:27.404Z,376.00
2017-11-29T08:30:27.387Z,400.00
2017-11-29T08:31:27.373Z,388.00
2017-11-29T08:32:27.359Z,384.00
2017-11-29T08:33:27.346Z,460.00
2017-11-29T08:34:27.331Z,436.00
2017-11-29T08:35:27.316Z,440.00
2017-11-29T08:36:27.301Z,512.00
2017-11-29T08:37:27.288Z,440.00
2017-11-29T08:38:27.272Z,408.00
2017-11-29T08:39:27.258Z,408.00
2017-11-29T08:40:27.243Z,404.00
2017-11-29T08:41:27.228Z,420.00
2017-11-29T08:42:27.214Z,384.00
2017-11-29T08:43:27.201Z,436.00
2017-11-29T08:44:27.186Z,408.00
2017-11-29T08:45:27.185Z,396.00
2017-11-29T08:46:27.164Z,412.00
2017-11-29T08:47:27.141Z,408.00
2017-11-29T08:48:27.126Z,416.00
2017-11-29T08:49:27.111Z,388.00
2017-11-29T08:50:27.098Z,440.00
2017-11-29T08:51:27.082Z,540.00
2017-11-29T08:52:27.068Z,488.00
2017-11-29T08:53:27.055Z,456.00
2017-11-29T08:54:27.039Z,544.00
2017-11-29T08:55:27.036Z,536.00
2017-11-29T08:56:27.011Z,512.00
2017-11-29T08:57:26.995Z,576.00
2017-11-29T08:58:26.979Z,460.00
2017-11-29T08:59:26.974Z,540.00
2017-11-29T09:00:26.961Z,508.00
2017-11-29T09:01:26.939Z,512.00
2017-11-29T09:02:26.921Z,584.00
2017-11-29T09:03:26.907Z,592.00
2017-11-29T09:04:26.893Z,544.00
2017-11-29T09:05:26.880Z,628.00
2017-11-29T09:06:26.865Z,684.00
2017-11-29T09:07:26.851Z,628.00
2017-11-29T09:08:26.853Z,676.00
2017-11-29T09:09:26.821Z,584.00
2017-11-29T09:10:26.810Z,604.00
2017-11-29T09:11:26.793Z,632.00
2017-11-29T09:12:26.778Z,692.00
2017-11-29T09:13:26.767Z,620.00
2017-11-29T09:14:26.747Z,592.00
2017-11-29T09:15:26.733Z,656.00
2017-11-29T09:16:26.719Z,604.00
2017-11-29T09:17:26.705Z,592.00
2017-11-29T09:18:26.688Z,644.00
2017-11-29T09:19:26.675Z,620.00
2017-11-29T09:20:26.660Z,636.00
2017-11-29T09:21:26.647Z,584.00
2017-11-29T09:22:26.631Z,604.00
2017-11-29T09:23:26.617Z,664.00
2017-11-29T09:24:26.611Z,612.00
2017-11-29T09:25:26.587Z,632.00
2017-11-29T09:26:26.574Z,604.00
2017-11-29T09:27:26.558Z,588.00
2017-11-29T09:28:26.571Z,552.00
2017-11-29T09:29:26.531Z,568.00
2017-11-29T09:30:26.514Z,568.00
2017-11-29T09:31:26.508Z,560.00
2017-11-29T09:32:26.485Z,504.00
2017-11-29T09:33:26.496Z,628.00
2017-11-29T09:34:26.455Z,644.00
2017-11-29T09:35:26.440Z,560.00
2017-11-29T09:36:26.427Z,544.00
2017-11-29T09:37:26.412Z,584.00
2017-11-29T09:38:26.397Z,600.00
2017-11-29T09:39:26.384Z,620.00
2017-11-29T09:40:26.378Z,648.00
2017-11-29T09:41:26.354Z,628.00
2017-11-29T09:42:26.340Z,652.00
2017-11-29T09:43:26.328Z,636.00
2017-11-29T09:44:26.311Z,648.00
2017-11-29T09:45:26.296Z,632.00
2017-11-29T09:46:26.281Z,596.00
2017-11-29T09:47:26.267Z,632.00
2017-11-29T09:48:26.251Z,612.00
2017-11-29T09:49:26.239Z,648.00
2017-11-29T09:50:26.221Z,596.00
2017-11-29T09:51:26.208Z,592.00
2017-11-29T09:52:26.193Z,584.00
2017-11-29T09:53:26.179Z,660.00
2017-11-29T09:54:26.165Z,656.00
2017-11-29T09:55:26.149Z,656.00
2017-11-29T09:56:26.135Z,632.00
2017-11-29T09:57:26.120Z,564.00
2017-11-29T09:58:26.105Z,648.00
2017-11-29T09:59:26.092Z,620.00
2017-11-29T10:00:26.077Z,596.00
2017-11-29T10:01:26.089Z,572.00
2017-11-29T10:02:26.048Z,572.00
2017-11-29T10:03:26.033Z,588.00
2017-11-29T10:04:26.019Z,632.00
2017-11-29T10:05:26.004Z,660.00
2017-11-29T10:06:25.990Z,732.00
2017-11-29T10:07:25.974Z,744.00
2017-11-29T10:08:25.960Z,652.00
2017-11-29T10:09:25.946Z,656.00
2017-11-29T10:10:25.929Z,684.00
2017-11-29T10:11:25.915Z,840.00
2017-11-29T10:12:25.902Z,892.00
2017-11-29T10:13:25.887Z,820.00
2017-11-29T10:14:25.876Z,744.00
2017-11-29T10:15:25.856Z,776.00
2017-11-29T10:16:25.843Z,776.00
2017-11-29T10:17:25.830Z,752.00
2017-11-29T10:18:25.821Z,720.00
2017-11-29T10:19:25.799Z,780.00
2017-11-29T10:20:25.784Z,808.00
2017-11-29T10:21:25.771Z,972.00
2017-11-29T10:22:25.757Z,896.00
2017-11-29T10:23:25.740Z,860.00
2017-11-29T10:24:25.728Z,896.00
2017-11-29T10:25:25.711Z,876.00
2017-11-29T10:26:25.697Z,872.00
2017-11-29T10:27:25.683Z,928.00
2017-11-29T10:28:25.668Z,900.00
2017-11-29T10:29:25.654Z,924.00
2017-11-29T10:30:25.638Z,900.00
2017-11-29T10:31:25.654Z,896.00
2017-11-29T10:32:25.610Z,836.00
2017-11-29T10:33:25.596Z,764.00
2017-11-29T10:34:25.581Z,752.00
2017-11-29T10:35:25.565Z,816.00
2017-11-29T10:36:25.552Z,816.00
2017-11-29T10:37:25.537Z,740.00
2017-11-29T10:38:25.521Z,724.00
2017-11-29T10:39:25.512Z,776.00
2017-11-29T10:40:25.494Z,800.00
2017-11-29T10:41:25.478Z,788.00
2017-11-29T10:42:25.464Z,824.00
2017-11-29T10:43:25.449Z,820.00
2017-11-29T10:44:25.435Z,800.00
2017-11-29T10:45:25.421Z,796.00
2017-11-29T10:46:25.405Z,844.00
2017-11-29T10:47:25.391Z,820.00
2017-11-29T10:48:25.376Z,784.00
2017-11-29T10:49:25.363Z,840.00
2017-11-29T10:50:25.350Z,880.00
2017-11-29T10:51:25.332Z,904.00
2017-11-29T10:52:25.318Z,912.00
2017-11-29T10:53:25.304Z,892.00
2017-11-29T10:54:25.289Z,932.00
2017-11-29T10:55:25.274Z,956.00
2017-11-29T10:56:25.259Z,904.00
2017-11-29T10:57:25.246Z,892.00
2017-11-29T10:58:25.230Z,872.00
2017-11-29T10:59:25.261Z,896.00
2017-11-29T11:00:25.201Z,860.00
2017-11-29T11:01:25.189Z,832.00
2017-11-29T11:02:25.173Z,912.00
2017-11-29T11:03:25.158Z,876.00
2017-11-29T11:04:25.147Z,924.00
2017-11-29T11:05:25.129Z,980.00
2017-11-29T11:06:25.115Z,964.00
2017-11-29T11:07:25.101Z,908.00
2017-11-29T11:08:25.087Z,960.00
2017-11-29T11:09:25.071Z,936.00
2017-11-29T11:10:25.058Z,952.00
2017-11-29T11:11:25.076Z,1024.00
2017-11-29T11:12:25.027Z,980.00
2017-11-29T11:13:25.013Z,1060.00
2017-11-29T11:14:25.004Z,1028.00
2017-11-29T11:15:24.983Z,1056.00
2017-11-29T11:16:25.000Z,1044.00
2017-11-29T11:17:24.956Z,1060.00
2017-11-29T11:18:24.940Z,1036.00
2017-11-29T11:19:24.932Z,1056.00
2017-11-29T11:20:24.913Z,980.00
2017-11-29T11:21:24.897Z,992.00
2017-11-29T11:22:24.883Z,1004.00
2017-11-29T11:23:24.868Z,968.00
2017-11-29T11:24:24.854Z,960.00
2017-11-29T11:25:24.840Z,944.00
2017-11-29T11:26:24.824Z,1000.00
2017-11-29T11:27:24.811Z,988.00
2017-11-29T11:28:24.796Z,904.00
2017-11-29T11:29:24.784Z,780.00
2017-11-29T11:30:24.766Z,740.00
2017-11-29T11:31:24.753Z,708.00
2017-11-29T11:32:24.740Z,696.00
2017-11-29T11:33:24.732Z,728.00
2017-11-29T11:34:24.709Z,788.00
2017-11-29T11:35:24.693Z,840.00
2017-11-29T11:36:24.680Z,844.00
2017-11-29T11:37:24.677Z,812.00
2017-11-29T11:38:24.651Z,876.00
2017-11-29T11:39:24.635Z,892.00
2017-11-29T11:40:24.622Z,864.00
2017-11-29T11:41:24.608Z,820.00
2017-11-29T11:42:24.592Z,832.00
2017-11-29T11:43:24.579Z,872.00
2017-11-29T11:44:24.564Z,924.00
2017-11-29T11:45:24.552Z,904.00
2017-11-29T11:46:24.565Z,912.00
2017-11-29T11:47:24.521Z,896.00
2017-11-29T11:48:24.507Z,848.00
2017-11-29T11:49:24.492Z,852.00
2017-11-29T11:50:24.481Z,892.00
2017-11-29T11:51:24.471Z,956.00
2017-11-29T11:52:24.449Z,988.00
2017-11-29T11:53:24.433Z,988.00
2017-11-29T11:54:24.418Z,836.00
2017-11-29T11:55:24.405Z,756.00
2017-11-29T11:56:24.391Z,756.00
2017-11-29T11:57:24.375Z,744.00
2017-11-29T11:58:24.361Z,764.00
2017-11-29T11:59:24.349Z,764.00
2017-11-29T12:00:24.332Z,760.00
2017-11-29T12:01:24.317Z,844.00
2017-11-29T12:02:24.303Z,968.00
2017-11-29T12:03:24.291Z,928.00
2017-11-29T12:04:24.275Z,860.00
2017-11-29T12:05:24.260Z,856.00
2017-11-29T12:06:24.245Z,732.00
2017-11-29T12:07:24.239Z,684.00
2017-11-29T12:08:24.216Z,700.00
2017-11-29T12:09:24.203Z,692.00
2017-11-29T12:10:24.188Z,680.00
2017-11-29T12:11:24.174Z,748.00
2017-11-29T12:12:24.160Z,768.00
2017-11-29T12:13:24.143Z,788.00
2017-11-29T12:14:24.129Z,748.00
2017-11-29T12:15:24.116Z,748.00
2017-11-29T12:16:24.102Z,860.00
2017-11-29T12:17:24.086Z,796.00
2017-11-29T12:18:24.072Z,768.00
2017-11-29T12:19:24.057Z,940.00
2017-11-29T12:20:24.043Z,968.00
2017-11-29T12:21:24.029Z,944.00
2017-11-29T12:22:24.015Z,904.00
2017-11-29T12:23:23.999Z,804.00
2017-11-29T12:24:23.985Z,728.00
2017-11-29T12:25:23.975Z,724.00
2017-11-29T12:26:23.957Z,716.00
2017-11-29T12:27:23.942Z,804.00
2017-11-29T12:28:23.927Z,752.00
2017-11-29T12:29:23.913Z,692.00
2017-11-29T12:30:23.898Z,728.00
2017-11-29T12:31:23.885Z,816.00
2017-11-29T12:32:23.872Z,832.00
2017-11-29T12:33:23.857Z,808.00
2017-11-29T12:34:23.841Z,752.00
2017-11-29T12:35:23.826Z,672.00
2017-11-29T12:36:23.813Z,628.00
2017-11-29T12:37:23.798Z,584.00
2017-11-29T12:38:23.782Z,568.00
2017-11-29T12:39:23.769Z,576.00
2017-11-29T12:40:23.757Z,520.00
2017-11-29T12:41:23.740Z,452.00
2017-11-29T12:42:23.724Z,420.00
2017-11-29T12:43:23.709Z,416.00
2017-11-29T12:44:23.697Z,432.00
2017-11-29T12:45:23.683Z,460.00
2017-11-29T12:46:23.668Z,492.00
2017-11-29T12:47:23.662Z,536.00
2017-11-29T12:48:23.637Z,576.00
2017-11-29T12:49:23.625Z,604.00
2017-11-29T12:50:23.609Z,628.00
2017-11-29T12:51:23.605Z,608.00
2017-11-29T12:52:23.581Z,592.00
2017-11-29T12:53:23.566Z,560.00
2017-11-29T12:54:23.550Z,496.00
2017-11-29T12:55:23.543Z,456.00
2017-11-29T12:56:23.522Z,444.00